createdAt,value
2023-04-02T00:00:26.028Z,63.35
2023-04-02T00:03:10.986Z,64.26
2023-04-02T00:05:57.416Z,64.56
2023-04-02T00:08:45.703Z,63.94
2023-04-02T00:11:36.403Z,64.45
2023-04-02T00:14:27.105Z,64.21
2023-04-02T00:17:13.263Z,64.23
2023-04-02T00:20:02.981Z,63.40
2023-04-02T00:22:48.539Z,62.64
2023-04-02T00:25:43.731Z,62.56
2023-04-02T00:28:29.987Z,63.18
2023-04-02T00:31:16.069Z,63.27
2023-04-02T00:34:06.314Z,63.16
2023-04-02T00:36:52.245Z,63.37
2023-04-02T00:39:41.891Z,62.31
2023-04-02T00:42:29.862Z,62.57
2023-04-02T00:45:25.466Z,63.51
2023-04-02T00:48:28.229Z,65.90
2023-04-02T00:51:19.836Z,68.45
2023-04-02T00:54:10.440Z,71.25
2023-04-02T00:56:59.866Z,71.99
2023-04-02T00:59:57.874Z,72.43
2023-04-02T01:02:43.723Z,73.90
2023-04-02T01:05:29.745Z,74.30
2023-04-02T01:08:26.922Z,75.32
2023-04-02T01:11:27.746Z,77.04
2023-04-02T01:14:20.324Z,76.31
2023-04-02T01:17:15.772Z,75.56
2023-04-02T01:20:25.557Z,76.63
2023-04-02T01:23:14.692Z,76.20
2023-04-02T01:26:08.171Z,76.67
2023-04-02T01:29:04.556Z,76.14
2023-04-02T01:31:50.916Z,77.14
2023-04-02T01:34:35.184Z,77.63
2023-04-02T01:37:37.961Z,77.46
2023-04-02T01:40:36.931Z,76.56
2023-04-02T01:43:28.485Z,76.36
2023-04-02T01:46:28.516Z,76.40
2023-04-02T01:49:17.674Z,76.71
2023-04-02T01:52:02.488Z,77.14
2023-04-02T01:54:49.230Z,76.99
2023-04-02T01:57:35.534Z,77.85
2023-04-02T02:00:20.231Z,78.57
2023-04-02T02:03:09.606Z,78.49
2023-04-02T02:05:57.453Z,78.72
2023-04-02T02:08:48.656Z,78.54
2023-04-02T02:11:37.156Z,79.51
2023-04-02T02:14:26.180Z,79.00
2023-04-02T02:17:16.550Z,79.55
2023-04-02T02:20:13.045Z,79.71
2023-04-02T02:23:01.933Z,79.09
2023-04-02T02:25:50.006Z,78.91
2023-04-02T02:28:40.693Z,79.05
2023-04-02T02:31:33.506Z,78.72
2023-04-02T02:34:25.253Z,79.36
2023-04-02T02:37:18.974Z,77.89
2023-04-02T02:40:09.088Z,78.07
2023-04-02T02:42:58.237Z,78.88
2023-04-02T02:45:45.136Z,78.47
2023-04-02T02:48:36.960Z,78.52
2023-04-02T02:51:27.868Z,77.14
2023-04-02T02:54:16.089Z,77.81
2023-04-02T02:57:06.263Z,76.65
2023-04-02T02:59:54.204Z,77.11
2023-04-02T03:02:41.004Z,77.16
2023-04-02T03:05:29.850Z,77.96
2023-04-02T03:08:22.528Z,78.26
2023-04-02T03:11:14.863Z,77.43
2023-04-02T03:14:13.756Z,78.14
2023-04-02T03:17:02.944Z,77.64
2023-04-02T03:19:53.049Z,77.74
2023-04-02T03:22:40.611Z,78.12
2023-04-02T03:25:33.469Z,77.71
2023-04-02T03:28:26.666Z,79.44
2023-04-02T03:31:17.402Z,77.87
2023-04-02T03:34:04.862Z,78.15
2023-04-02T03:36:57.117Z,78.94
2023-04-02T03:39:45.818Z,79.50
2023-04-02T03:42:38.449Z,80.44
2023-04-02T03:45:27.831Z,79.85
2023-04-02T03:48:18.554Z,80.44
2023-04-02T03:51:10.010Z,79.79
2023-04-02T03:53:58.269Z,79.49
2023-04-02T03:56:45.047Z,80.06
2023-04-02T03:59:39.756Z,79.99
2023-04-02T04:02:38.758Z,80.27
2023-04-02T04:05:29.888Z,81.36
2023-04-02T04:08:21.094Z,80.39
2023-04-02T04:11:14.299Z,80.46
2023-04-02T04:14:05.523Z,80.86
2023-04-02T04:16:57.227Z,81.68
2023-04-02T04:19:49.339Z,81.85
2023-04-02T04:22:35.783Z,80.62
2023-04-02T04:25:26.707Z,81.25
2023-04-02T04:28:24.571Z,80.79
2023-04-02T04:31:24.636Z,81.58
2023-04-02T04:34:17.330Z,81.09
2023-04-02T04:37:24.137Z,80.78
2023-04-02T04:40:21.519Z,81.77
2023-04-02T04:43:09.360Z,81.59
2023-04-02T04:46:01.584Z,80.68
2023-04-02T04:48:56.355Z,81.12
2023-04-02T04:51:46.261Z,79.49
2023-04-02T04:54:33.912Z,80.16
2023-04-02T04:57:31.114Z,78.07
2023-04-02T05:00:25.892Z,78.61
2023-04-02T05:03:21.844Z,76.70
2023-04-02T05:06:15.030Z,76.53
2023-04-02T05:09:08.827Z,76.49
2023-04-02T05:12:06.762Z,76.11
2023-04-02T05:14:59.712Z,76.87
2023-04-02T05:17:54.172Z,76.18
2023-04-02T05:20:46.512Z,74.02
2023-04-02T05:23:33.021Z,73.63
2023-04-02T05:26:22.099Z,73.56
2023-04-02T05:29:16.794Z,72.86
2023-04-02T05:32:05.771Z,72.52
2023-04-02T05:34:55.050Z,73.31
2023-04-02T05:37:41.474Z,72.38
2023-04-02T05:40:36.910Z,72.08
2023-04-02T05:43:26.333Z,71.83
2023-04-02T05:46:19.219Z,71.00
2023-04-02T05:49:08.668Z,70.54
2023-04-02T05:51:57.701Z,69.76
2023-04-02T05:54:48.256Z,68.49
2023-04-02T05:57:44.651Z,66.85
2023-04-02T06:01:02.507Z,66.22
2023-04-02T06:03:59.554Z,65.12
2023-04-02T06:06:57.962Z,63.59
2023-04-02T06:09:47.174Z,62.93
2023-04-02T06:12:39.041Z,61.77
2023-04-02T06:15:27.312Z,61.54
2023-04-02T06:18:19.314Z,56.40
2023-04-02T06:21:09.390Z,46.99
2023-04-02T06:24:00.828Z,41.42
2023-04-02T06:26:52.908Z,37.72
2023-04-02T06:29:41.626Z,31.33
2023-04-02T06:32:28.379Z,30.86
2023-04-02T06:35:16.788Z,30.78
2023-04-02T06:38:09.849Z,28.50
2023-04-02T06:40:59.227Z,24.78
2023-04-02T06:43:50.683Z,26.89
2023-04-02T06:46:43.232Z,26.30
2023-04-02T06:49:38.427Z,23.77
2023-04-02T06:52:29.177Z,24.54
2023-04-02T06:55:33.830Z,21.67
2023-04-02T06:58:22.406Z,21.16
2023-04-02T07:01:10.710Z,19.45
2023-04-02T07:03:58.644Z,23.09
2023-04-02T07:06:46.314Z,21.33
2023-04-02T07:09:31.642Z,19.99
2023-04-02T07:12:28.138Z,19.55
2023-04-02T07:15:20.818Z,20.61
2023-04-02T07:18:08.041Z,20.03
2023-04-02T07:20:55.835Z,19.22
2023-04-02T07:23:43.322Z,18.38
2023-04-02T07:26:31.923Z,17.50
2023-04-02T07:29:23.169Z,19.38
2023-04-02T07:32:11.503Z,17.37
2023-04-02T07:34:58.333Z,17.41
2023-04-02T07:37:44.170Z,18.66
2023-04-02T07:40:29.808Z,20.22
2023-04-02T07:43:16.115Z,21.98
2023-04-02T07:46:07.937Z,19.88
2023-04-02T07:48:54.091Z,19.94
2023-04-02T07:51:40.840Z,16.13
2023-04-02T07:54:28.919Z,15.93
2023-04-02T07:57:15.367Z,16.09
2023-04-02T08:00:00.544Z,14.93
2023-04-02T08:02:47.429Z,15.34
2023-04-02T08:05:33.492Z,14.54
2023-04-02T08:08:18.133Z,19.72
2023-04-02T08:11:02.551Z,23.55
2023-04-02T08:13:48.689Z,24.37
2023-04-02T08:16:46.540Z,19.94
2023-04-02T08:19:41.542Z,18.20
2023-04-02T08:22:35.219Z,17.42
2023-04-02T08:25:23.105Z,18.42
2023-04-02T08:28:10.804Z,20.21
2023-04-02T08:30:55.615Z,22.02
2023-04-02T08:33:42.130Z,22.11
2023-04-02T08:36:33.800Z,24.09
2023-04-02T08:39:21.047Z,24.15
2023-04-02T08:42:13.895Z,23.95
2023-04-02T08:45:23.644Z,25.57
2023-04-02T08:48:14.611Z,24.68
2023-04-02T08:51:01.576Z,25.58
2023-04-02T08:53:49.679Z,25.38
2023-04-02T08:56:42.541Z,26.25
2023-04-02T08:59:35.803Z,26.54
2023-04-02T09:02:33.974Z,27.11
2023-04-02T09:05:22.293Z,26.19
2023-04-02T09:08:17.368Z,27.19
2023-04-02T09:11:10.327Z,25.80
2023-04-02T09:13:59.881Z,23.93
2023-04-02T09:16:52.156Z,18.26
2023-04-02T09:19:41.578Z,14.56
2023-04-02T09:22:29.007Z,13.94
2023-04-02T09:25:16.673Z,12.85
2023-04-02T09:28:05.537Z,11.51
2023-04-02T09:31:18.946Z,11.79
2023-04-02T09:34:04.157Z,11.40
2023-04-02T09:36:50.178Z,10.47
2023-04-02T09:39:37.129Z,12.72
2023-04-02T09:42:35.277Z,12.44
2023-04-02T09:45:29.517Z,11.43
2023-04-02T09:48:28.429Z,13.73
2023-04-02T09:51:20.820Z,12.31
2023-04-02T09:54:17.930Z,11.20
2023-04-02T09:57:05.114Z,8.93
2023-04-02T09:59:51.570Z,10.33
2023-04-02T10:02:38.599Z,12.42
2023-04-02T10:05:39.857Z,14.76
2023-04-02T10:08:32.439Z,16.69
2023-04-02T10:11:21.756Z,18.17
2023-04-02T10:14:08.327Z,19.44
2023-04-02T10:16:54.419Z,18.79
2023-04-02T10:19:44.554Z,17.53
2023-04-02T10:22:32.888Z,16.90
2023-04-02T10:25:21.265Z,16.57
2023-04-02T10:28:16.125Z,15.07
2023-04-02T10:31:07.447Z,13.27
2023-04-02T10:33:59.556Z,12.02
2023-04-02T10:36:56.967Z,10.65
2023-04-02T10:39:48.127Z,9.32
2023-04-02T10:42:38.368Z,10.85
2023-04-02T10:45:36.998Z,10.11
2023-04-02T10:48:30.807Z,12.48
2023-04-02T10:51:28.822Z,12.17
2023-04-02T10:54:33.470Z,9.33
2023-04-02T10:57:36.374Z,9.54
2023-04-02T11:00:31.600Z,9.44
2023-04-02T11:03:26.277Z,9.06
2023-04-02T11:06:22.422Z,8.08
2023-04-02T11:09:17.786Z,8.64
2023-04-02T11:12:10.569Z,10.36
2023-04-02T11:14:59.073Z,14.65
2023-04-02T11:17:46.265Z,15.20
2023-04-02T11:21:07.566Z,14.22
2023-04-02T11:24:01.671Z,15.03
2023-04-02T11:26:50.710Z,17.70
2023-04-02T11:29:41.211Z,19.45
2023-04-02T11:32:35.104Z,21.83
2023-04-02T11:35:43.091Z,24.41
2023-04-02T11:38:59.629Z,25.86
2023-04-02T11:42:25.692Z,27.72
2023-04-02T11:45:52.799Z,27.08
2023-04-02T11:48:41.634Z,29.00
2023-04-02T11:51:56.517Z,29.09
2023-04-02T11:55:00.194Z,28.59
2023-04-02T11:58:03.974Z,28.93
2023-04-02T12:01:15.949Z,30.11
2023-04-02T12:04:32.626Z,29.12
2023-04-02T12:07:53.127Z,27.62
2023-04-02T12:10:56.967Z,29.52
2023-04-02T12:14:00.017Z,29.98
2023-04-02T12:16:47.522Z,30.08
2023-04-02T12:19:36.225Z,31.25
2023-04-02T12:22:25.439Z,32.61
2023-04-02T12:25:30.694Z,30.34
2023-04-02T12:28:23.606Z,30.89
2023-04-02T12:31:18.811Z,31.40
2023-04-02T12:34:07.102Z,30.88
2023-04-02T12:37:04.213Z,31.25
2023-04-02T12:39:58.123Z,33.58
2023-04-02T12:42:44.927Z,31.90
2023-04-02T12:45:36.200Z,33.50
2023-04-02T12:48:22.976Z,32.19
2023-04-02T12:51:08.793Z,31.80
2023-04-02T12:53:56.995Z,32.21
2023-04-02T12:56:43.570Z,32.84
2023-04-02T12:59:40.158Z,32.05
2023-04-02T13:02:28.512Z,32.71
2023-04-02T13:05:14.534Z,32.56
2023-04-02T13:08:00.746Z,33.71
2023-04-02T13:10:47.527Z,33.61
2023-04-02T13:13:36.610Z,33.80
2023-04-02T13:16:31.530Z,34.10
2023-04-02T13:19:29.512Z,30.73
2023-04-02T13:22:34.060Z,32.87
2023-04-02T13:25:20.301Z,33.84
2023-04-02T13:28:08.022Z,32.13
2023-04-02T13:30:55.345Z,33.19
2023-04-02T13:33:41.335Z,32.52
2023-04-02T13:36:31.984Z,32.33
2023-04-02T13:39:19.844Z,32.83
2023-04-02T13:42:09.177Z,33.67
2023-04-02T13:44:55.806Z,32.73
2023-04-02T13:47:41.423Z,34.07
2023-04-02T13:50:27.136Z,32.23
2023-04-02T13:53:24.506Z,32.67
2023-04-02T13:56:11.830Z,31.38
2023-04-02T13:58:56.791Z,33.17
2023-04-02T14:01:46.659Z,32.90
2023-04-02T14:04:35.603Z,33.48
2023-04-02T14:07:37.051Z,33.18
2023-04-02T14:10:33.283Z,33.83
2023-04-02T14:13:30.291Z,32.32
2023-04-02T14:16:31.018Z,33.67
2023-04-02T14:19:34.982Z,34.19
2023-04-02T14:22:36.989Z,34.06
2023-04-02T14:25:30.008Z,32.34
2023-04-02T14:28:25.210Z,33.16
2023-04-02T14:31:24.483Z,32.86
2023-04-02T14:34:19.585Z,32.38
2023-04-02T14:37:14.232Z,32.25
2023-04-02T14:40:15.203Z,32.34
2023-04-02T14:43:06.331Z,32.52
2023-04-02T14:46:00.915Z,33.07
2023-04-02T14:48:53.011Z,32.55
2023-04-02T14:51:44.269Z,33.15
2023-04-02T14:54:34.811Z,34.16
2023-04-02T14:57:24.024Z,33.24
2023-04-02T15:00:21.673Z,33.59
2023-04-02T15:03:13.347Z,33.91
2023-04-02T15:06:01.144Z,32.80
2023-04-02T15:09:06.220Z,34.30
2023-04-02T15:12:01.155Z,34.19
2023-04-02T15:14:50.131Z,34.93
2023-04-02T15:17:35.338Z,33.50
2023-04-02T15:20:22.627Z,34.47
2023-04-02T15:23:14.650Z,33.63
2023-04-02T15:26:10.317Z,33.86
2023-04-02T15:29:09.248Z,33.62
2023-04-02T15:32:07.256Z,34.99
2023-04-02T15:34:59.666Z,33.95
2023-04-02T15:37:54.543Z,35.86
2023-04-02T15:40:58.518Z,35.23
2023-04-02T15:43:53.009Z,35.42
2023-04-02T15:46:55.397Z,35.18
2023-04-02T15:49:45.134Z,34.41
2023-04-02T15:52:40.806Z,34.77
2023-04-02T15:55:35.356Z,35.94
2023-04-02T15:58:30.892Z,33.74
2023-04-02T16:01:27.468Z,35.54
2023-04-02T16:04:38.081Z,35.94
2023-04-02T16:07:38.258Z,35.48
2023-04-02T16:13:21.266Z,35.90
2023-04-02T16:16:10.462Z,36.23
2023-04-02T16:19:01.380Z,36.07
2023-04-02T16:22:02.370Z,35.94
2023-04-02T16:24:48.668Z,36.04
2023-04-02T16:27:41.545Z,37.38
2023-04-02T16:30:49.622Z,37.86
2023-04-02T16:33:55.013Z,36.83
2023-04-02T16:36:54.468Z,37.16
2023-04-02T16:39:45.348Z,37.65
2023-04-02T16:42:39.560Z,36.76
2023-04-02T16:45:37.823Z,37.73
2023-04-02T16:48:33.046Z,38.28
2023-04-02T16:51:27.379Z,37.44
2023-04-02T16:54:21.012Z,38.63
2023-04-02T16:57:21.383Z,38.71
2023-04-02T17:00:18.982Z,38.54
2023-04-02T17:03:23.353Z,38.17
2023-04-02T17:06:12.073Z,38.70
2023-04-02T17:09:02.951Z,38.26
2023-04-02T17:11:55.455Z,38.27
2023-04-02T17:14:50.960Z,38.71
2023-04-02T17:17:35.374Z,38.39
2023-04-02T17:20:24.601Z,39.96
2023-04-02T17:23:12.215Z,40.21
2023-04-02T17:26:04.583Z,40.54
2023-04-02T17:28:53.453Z,42.11
2023-04-02T17:31:43.262Z,41.40
2023-04-02T17:34:28.932Z,41.57
2023-04-02T17:37:28.815Z,41.13
2023-04-02T17:40:28.872Z,41.38
2023-04-02T17:43:28.439Z,42.24
2023-04-02T17:46:26.530Z,41.01
2023-04-02T17:49:23.570Z,40.45
2023-04-02T17:52:13.365Z,40.96
2023-04-02T17:55:07.893Z,40.78
2023-04-02T17:58:08.586Z,40.95
2023-04-02T18:01:04.704Z,41.63
2023-04-02T18:03:55.505Z,42.82
2023-04-02T18:06:50.399Z,41.73
2023-04-02T18:09:43.141Z,41.74
2023-04-02T18:12:50.453Z,43.19
2023-04-02T18:15:50.529Z,42.37
2023-04-02T18:19:07.800Z,42.36
2023-04-02T18:22:00.518Z,42.17
2023-04-02T18:25:15.109Z,43.40
2023-04-02T18:28:11.412Z,44.48
2023-04-02T18:31:04.250Z,44.07
2023-04-02T18:34:10.367Z,43.78
2023-04-02T18:37:10.905Z,43.95
2023-04-02T18:40:23.263Z,44.14
2023-04-02T18:43:22.040Z,43.96
2023-04-02T18:46:17.662Z,44.63
2023-04-02T18:49:07.347Z,44.78
2023-04-02T18:51:57.998Z,44.71
2023-04-02T18:54:47.744Z,46.71
2023-04-02T18:57:36.450Z,45.23
2023-04-02T19:00:30.577Z,45.44
2023-04-02T19:03:21.441Z,47.22
2023-04-02T19:06:10.328Z,46.65
2023-04-02T19:09:01.166Z,46.87
2023-04-02T19:11:48.419Z,47.55
2023-04-02T19:14:34.808Z,46.95
2023-04-02T19:17:28.039Z,47.26
2023-04-02T19:20:27.444Z,48.23
2023-04-02T19:23:25.184Z,48.71
2023-04-02T19:26:13.553Z,48.81
2023-04-02T19:29:15.143Z,49.05
2023-04-02T19:32:06.647Z,49.40
2023-04-02T19:34:59.121Z,50.84
2023-04-02T19:37:52.655Z,50.57
2023-04-02T19:40:45.313Z,50.69
2023-04-02T19:43:33.834Z,51.71
2023-04-02T19:46:22.027Z,51.04
2023-04-02T19:49:16.054Z,51.25
2023-04-02T19:52:03.058Z,51.78
2023-04-02T19:54:47.846Z,51.03
2023-04-02T19:57:34.809Z,52.38
2023-04-02T20:00:21.601Z,50.93
2023-04-02T20:03:08.396Z,50.37
2023-04-02T20:05:55.201Z,52.12
2023-04-02T20:08:41.324Z,52.33
2023-04-02T20:11:27.076Z,52.30
2023-04-02T20:14:13.220Z,52.10
2023-04-02T20:16:59.219Z,52.54
2023-04-02T20:19:46.271Z,54.19
2023-04-02T20:22:30.698Z,54.23
2023-04-02T20:25:16.583Z,54.80
2023-04-02T20:28:01.794Z,53.50
2023-04-02T20:30:48.831Z,54.13
2023-04-02T20:33:35.955Z,53.19
2023-04-02T20:36:22.511Z,54.26
2023-04-02T20:39:09.733Z,55.99
2023-04-02T20:41:56.838Z,56.33
2023-04-02T20:44:42.796Z,56.23
2023-04-02T20:47:30.656Z,56.09
2023-04-02T20:50:18.109Z,57.12
2023-04-02T20:53:06.944Z,57.83
2023-04-02T20:55:53.467Z,57.10
2023-04-02T20:58:40.008Z,56.75
2023-04-02T21:01:28.326Z,55.95
2023-04-02T21:04:15.045Z,56.38
2023-04-02T21:07:00.953Z,56.59
2023-04-02T21:09:48.641Z,57.22
2023-04-02T21:12:34.182Z,58.06
2023-04-02T21:15:20.849Z,57.82
2023-04-02T21:18:04.442Z,58.20
2023-04-02T21:20:57.675Z,58.70
2023-04-02T21:23:42.229Z,59.51
2023-04-02T21:26:28.744Z,57.75
2023-04-02T21:29:13.212Z,57.68
2023-04-02T21:31:57.525Z,59.18
2023-04-02T21:34:42.419Z,59.71
2023-04-02T21:37:26.554Z,59.49
2023-04-02T21:40:11.393Z,60.08
2023-04-02T21:42:56.241Z,60.77
2023-04-02T21:45:39.643Z,60.29
2023-04-02T21:48:26.292Z,60.44
2023-04-02T21:51:13.507Z,60.87
2023-04-02T21:54:00.196Z,59.96
2023-04-02T21:56:49.465Z,60.22
2023-04-02T21:59:38.028Z,60.79
2023-04-02T22:02:23.273Z,60.44
2023-04-02T22:05:11.854Z,60.53
2023-04-02T22:07:57.402Z,60.47
2023-04-02T22:10:44.486Z,60.23
2023-04-02T22:13:30.355Z,60.47
2023-04-02T22:16:18.600Z,60.94
2023-04-02T22:19:04.497Z,61.54
2023-04-02T22:21:51.510Z,61.64
2023-04-02T22:24:38.278Z,62.50
2023-04-02T22:27:25.250Z,61.71
2023-04-02T22:30:12.280Z,62.14
2023-04-02T22:33:00.222Z,62.13
2023-04-02T22:35:46.760Z,62.28
2023-04-02T22:38:32.541Z,62.89
2023-04-02T22:41:22.090Z,63.30
2023-04-02T22:44:08.101Z,63.05
2023-04-02T22:46:56.028Z,63.13
2023-04-02T22:49:44.476Z,63.24
2023-04-02T22:52:28.965Z,63.55
2023-04-02T22:55:16.097Z,63.34
2023-04-02T22:58:00.103Z,63.60
2023-04-02T23:00:44.000Z,63.98
2023-04-02T23:03:28.034Z,63.96
2023-04-02T23:06:15.392Z,63.86
2023-04-02T23:08:59.288Z,64.17
2023-04-02T23:11:43.162Z,64.35
2023-04-02T23:14:27.158Z,64.52
2023-04-02T23:17:11.100Z,64.79
2023-04-02T23:19:54.984Z,64.72
2023-04-02T23:22:40.462Z,65.18
2023-04-02T23:25:24.165Z,65.65
2023-04-02T23:28:07.913Z,65.04
2023-04-02T23:30:51.597Z,65.28
2023-04-02T23:33:35.309Z,65.46
2023-04-02T23:36:23.001Z,66.08
2023-04-02T23:39:10.981Z,65.98
2023-04-02T23:41:54.947Z,66.67
2023-04-02T23:44:39.045Z,66.80
2023-04-02T23:47:23.334Z,66.36
2023-04-02T23:50:08.154Z,66.42
2023-04-02T23:52:52.300Z,67.08
2023-04-02T23:55:37.981Z,67.34
2023-04-02T23:58:22.185Z,66.99
